sensor_id;sensor_type;location;lat;lon;timestamp;P1;durP1;ratioP1;P2;durP2;ratioP2
12425;SDS011;6277;49.824;9.562;2022-10-16T00:01:08;1.27;;;0.63;;
12425;SDS011;6277;49.824;9.562;2022-10-16T00:03:36;0.65;;;0.30;;
12425;SDS011;6277;49.824;9.562;2022-10-16T00:06:03;0.88;;;0.40;;
12425;SDS011;6277;49.824;9.562;2022-10-16T00:08:30;0.38;;;0.30;;
12425;SDS011;6277;49.824;9.562;2022-10-16T00:11:15;0.30;;;0.30;;
12425;SDS011;6277;49.824;9.562;2022-10-16T00:13:55;0.75;;;0.60;;
12425;SDS011;6277;49.824;9.562;2022-10-16T00:16:22;0.52;;;0.30;;
12425;SDS011;6277;49.824;9.562;2022-10-16T00:18:48;0.20;;;0.20;;
12425;SDS011;6277;49.824;9.562;2022-10-16T00:21:16;0.32;;;0.30;;
12425;SDS011;6277;49.824;9.562;2022-10-16T00:23:44;0.20;;;0.20;;
12425;SDS011;6277;49.824;9.562;2022-10-16T00:26:11;0.85;;;0.20;;
12425;SDS011;6277;49.824;9.562;2022-10-16T00:28:38;0.63;;;0.20;;
12425;SDS011;6277;49.824;9.562;2022-10-16T00:31:05;1.00;;;0.30;;
12425;SDS011;6277;49.824;9.562;2022-10-16T00:33:31;0.30;;;0.30;;
12425;SDS011;6277;49.824;9.562;2022-10-16T00:35:58;0.40;;;0.38;;
12425;SDS011;6277;49.824;9.562;2022-10-16T00:38:24;0.22;;;0.20;;
12425;SDS011;6277;49.824;9.562;2022-10-16T00:40:50;3.13;;;0.20;;
12425;SDS011;6277;49.824;9.562;2022-10-16T00:43:35;1.20;;;0.30;;
12425;SDS011;6277;49.824;9.562;2022-10-16T00:46:11;0.15;;;0.13;;
12425;SDS011;6277;49.824;9.562;2022-10-16T00:48:41;0.10;;;0.10;;
12425;SDS011;6277;49.824;9.562;2022-10-16T00:51:13;0.17;;;0.10;;
12425;SDS011;6277;49.824;9.562;2022-10-16T00:53:39;0.65;;;0.10;;
12425;SDS011;6277;49.824;9.562;2022-10-16T00:56:05;0.10;;;0.10;;
12425;SDS011;6277;49.824;9.562;2022-10-16T00:58:31;0.20;;;0.10;;
12425;SDS011;6277;49.824;9.562;2022-10-16T01:00:57;0.10;;;0.10;;
12425;SDS011;6277;49.824;9.562;2022-10-16T01:03:32;0.28;;;0.20;;
12425;SDS011;6277;49.824;9.562;2022-10-16T01:09:07;0.00;;;0.00;;
12425;SDS011;6277;49.824;9.562;2022-10-16T01:12:05;1.02;;;0.10;;
12425;SDS011;6277;49.824;9.562;2022-10-16T01:14:45;0.10;;;0.10;;
12425;SDS011;6277;49.824;9.562;2022-10-16T01:17:34;1.40;;;0.10;;
12425;SDS011;6277;49.824;9.562;2022-10-16T01:22:44;0.00;;;0.00;;
12425;SDS011;6277;49.824;9.562;2022-10-16T01:25:30;0.03;;;0.03;;
12425;SDS011;6277;49.824;9.562;2022-10-16T01:28:09;0.38;;;0.10;;
12425;SDS011;6277;49.824;9.562;2022-10-16T01:30:38;0.00;;;0.00;;
12425;SDS011;6277;49.824;9.562;2022-10-16T01:35:43;0.15;;;0.10;;
12425;SDS011;6277;49.824;9.562;2022-10-16T01:38:16;0.57;;;0.10;;
12425;SDS011;6277;49.824;9.562;2022-10-16T01:40:44;0.40;;;0.10;;
12425;SDS011;6277;49.824;9.562;2022-10-16T01:43:15;0.05;;;0.05;;
12425;SDS011;6277;49.824;9.562;2022-10-16T01:45:44;0.10;;;0.10;;
12425;SDS011;6277;49.824;9.562;2022-10-16T01:48:12;0.10;;;0.10;;
12425;SDS011;6277;49.824;9.562;2022-10-16T01:50:41;0.17;;;0.10;;
12425;SDS011;6277;49.824;9.562;2022-10-16T01:53:10;0.10;;;0.10;;
12425;SDS011;6277;49.824;9.562;2022-10-16T01:55:38;0.10;;;0.10;;
12425;SDS011;6277;49.824;9.562;2022-10-16T01:58:10;0.10;;;0.10;;
12425;SDS011;6277;49.824;9.562;2022-10-16T02:00:37;0.40;;;0.20;;
12425;SDS011;6277;49.824;9.562;2022-10-16T02:03:06;0.15;;;0.10;;
12425;SDS011;6277;49.824;9.562;2022-10-16T02:08:18;0.63;;;0.17;;
12425;SDS011;6277;49.824;9.562;2022-10-16T02:10:45;0.15;;;0.05;;
12425;SDS011;6277;49.824;9.562;2022-10-16T02:15:38;0.57;;;0.10;;
12425;SDS011;6277;49.824;9.562;2022-10-16T02:18:04;0.75;;;0.10;;
12425;SDS011;6277;49.824;9.562;2022-10-16T02:20:32;0.22;;;0.17;;
12425;SDS011;6277;49.824;9.562;2022-10-16T02:23:05;0.28;;;0.20;;
12425;SDS011;6277;49.824;9.562;2022-10-16T02:25:37;0.20;;;0.20;;
12425;SDS011;6277;49.824;9.562;2022-10-16T02:28:08;0.40;;;0.20;;
12425;SDS011;6277;49.824;9.562;2022-10-16T02:30:45;0.43;;;0.20;;
12425;SDS011;6277;49.824;9.562;2022-10-16T02:33:15;0.20;;;0.20;;
12425;SDS011;6277;49.824;9.562;2022-10-16T02:35:43;0.20;;;0.20;;
12425;SDS011;6277;49.824;9.562;2022-10-16T02:38:11;0.32;;;0.20;;
12425;SDS011;6277;49.824;9.562;2022-10-16T02:40:38;1.23;;;0.30;;
12425;SDS011;6277;49.824;9.562;2022-10-16T02:43:04;0.20;;;0.20;;
12425;SDS011;6277;49.824;9.562;2022-10-16T02:45:30;0.50;;;0.28;;
12425;SDS011;6277;49.824;9.562;2022-10-16T02:47:56;0.38;;;0.30;;
12425;SDS011;6277;49.824;9.562;2022-10-16T02:50:22;0.28;;;0.20;;
12425;SDS011;6277;49.824;9.562;2022-10-16T02:52:49;0.10;;;0.10;;
12425;SDS011;6277;49.824;9.562;2022-10-16T02:55:14;0.30;;;0.30;;
12425;SDS011;6277;49.824;9.562;2022-10-16T02:57:40;0.93;;;0.30;;
12425;SDS011;6277;49.824;9.562;2022-10-16T03:00:06;0.20;;;0.20;;
12425;SDS011;6277;49.824;9.562;2022-10-16T03:02:34;0.28;;;0.20;;
12425;SDS011;6277;49.824;9.562;2022-10-16T03:04:59;0.35;;;0.20;;
12425;SDS011;6277;49.824;9.562;2022-10-16T03:07:25;0.20;;;0.20;;
12425;SDS011;6277;49.824;9.562;2022-10-16T03:09:50;0.45;;;0.30;;
12425;SDS011;6277;49.824;9.562;2022-10-16T03:12:16;0.35;;;0.17;;
12425;SDS011;6277;49.824;9.562;2022-10-16T03:14:41;0.20;;;0.20;;
12425;SDS011;6277;49.824;9.562;2022-10-16T03:17:07;0.95;;;0.30;;
12425;SDS011;6277;49.824;9.562;2022-10-16T03:19:32;1.42;;;0.25;;
12425;SDS011;6277;49.824;9.562;2022-10-16T03:21:58;0.30;;;0.20;;
12425;SDS011;6277;49.824;9.562;2022-10-16T03:24:23;0.30;;;0.20;;
12425;SDS011;6277;49.824;9.562;2022-10-16T03:26:49;0.30;;;0.17;;
12425;SDS011;6277;49.824;9.562;2022-10-16T03:29:15;0.63;;;0.30;;
12425;SDS011;6277;49.824;9.562;2022-10-16T03:31:40;0.20;;;0.20;;
12425;SDS011;6277;49.824;9.562;2022-10-16T03:34:06;0.35;;;0.20;;
12425;SDS011;6277;49.824;9.562;2022-10-16T03:36:31;0.20;;;0.20;;
12425;SDS011;6277;49.824;9.562;2022-10-16T03:38:57;0.28;;;0.20;;
12425;SDS011;6277;49.824;9.562;2022-10-16T03:41:22;0.20;;;0.20;;
12425;SDS011;6277;49.824;9.562;2022-10-16T03:43:48;1.13;;;0.20;;
12425;SDS011;6277;49.824;9.562;2022-10-16T03:46:13;0.20;;;0.20;;
12425;SDS011;6277;49.824;9.562;2022-10-16T03:48:39;0.10;;;0.10;;
12425;SDS011;6277;49.824;9.562;2022-10-16T03:51:05;0.20;;;0.13;;
12425;SDS011;6277;49.824;9.562;2022-10-16T03:53:30;0.10;;;0.10;;
12425;SDS011;6277;49.824;9.562;2022-10-16T03:55:56;0.15;;;0.15;;
12425;SDS011;6277;49.824;9.562;2022-10-16T03:58:22;1.05;;;0.20;;
12425;SDS011;6277;49.824;9.562;2022-10-16T04:00:47;0.63;;;0.20;;
12425;SDS011;6277;49.824;9.562;2022-10-16T04:03:13;0.10;;;0.00;;
12425;SDS011;6277;49.824;9.562;2022-10-16T04:05:39;1.02;;;0.13;;
12425;SDS011;6277;49.824;9.562;2022-10-16T04:08:05;0.20;;;0.20;;
12425;SDS011;6277;49.824;9.562;2022-10-16T04:10:31;0.30;;;0.10;;
12425;SDS011;6277;49.824;9.562;2022-10-16T04:12:56;0.17;;;0.17;;
12425;SDS011;6277;49.824;9.562;2022-10-16T04:15:23;0.40;;;0.20;;
12425;SDS011;6277;49.824;9.562;2022-10-16T04:17:48;0.28;;;0.10;;
12425;SDS011;6277;49.824;9.562;2022-10-16T04:20:14;0.28;;;0.10;;
12425;SDS011;6277;49.824;9.562;2022-10-16T04:22:40;0.52;;;0.20;;
12425;SDS011;6277;49.824;9.562;2022-10-16T04:25:06;0.30;;;0.20;;
12425;SDS011;6277;49.824;9.562;2022-10-16T04:27:31;0.32;;;0.30;;
12425;SDS011;6277;49.824;9.562;2022-10-16T04:29:57;0.30;;;0.30;;
12425;SDS011;6277;49.824;9.562;2022-10-16T04:32:23;0.20;;;0.20;;
12425;SDS011;6277;49.824;9.562;2022-10-16T04:34:49;1.02;;;0.30;;
12425;SDS011;6277;49.824;9.562;2022-10-16T04:37:14;0.40;;;0.30;;
12425;SDS011;6277;49.824;9.562;2022-10-16T04:39:40;0.43;;;0.28;;
12425;SDS011;6277;49.824;9.562;2022-10-16T04:42:05;0.43;;;0.22;;
12425;SDS011;6277;49.824;9.562;2022-10-16T04:44:31;0.55;;;0.28;;
12425;SDS011;6277;49.824;9.562;2022-10-16T04:46:57;0.50;;;0.40;;
12425;SDS011;6277;49.824;9.562;2022-10-16T04:49:22;0.40;;;0.40;;
12425;SDS011;6277;49.824;9.562;2022-10-16T04:51:48;0.30;;;0.22;;
12425;SDS011;6277;49.824;9.562;2022-10-16T04:54:13;0.38;;;0.30;;
12425;SDS011;6277;49.824;9.562;2022-10-16T04:56:39;0.20;;;0.20;;
12425;SDS011;6277;49.824;9.562;2022-10-16T04:59:15;0.25;;;0.25;;
12425;SDS011;6277;49.824;9.562;2022-10-16T05:01:41;0.88;;;0.50;;
12425;SDS011;6277;49.824;9.562;2022-10-16T05:04:07;0.30;;;0.30;;
12425;SDS011;6277;49.824;9.562;2022-10-16T05:06:32;0.88;;;0.38;;
12425;SDS011;6277;49.824;9.562;2022-10-16T05:08:58;0.30;;;0.30;;
12425;SDS011;6277;49.824;9.562;2022-10-16T05:11:24;0.82;;;0.50;;
12425;SDS011;6277;49.824;9.562;2022-10-16T05:13:49;0.90;;;0.45;;
12425;SDS011;6277;49.824;9.562;2022-10-16T05:16:15;0.85;;;0.47;;
12425;SDS011;6277;49.824;9.562;2022-10-16T05:18:40;1.00;;;0.50;;
12425;SDS011;6277;49.824;9.562;2022-10-16T05:21:06;0.40;;;0.40;;
12425;SDS011;6277;49.824;9.562;2022-10-16T05:23:31;0.57;;;0.57;;
12425;SDS011;6277;49.824;9.562;2022-10-16T05:25:57;1.17;;;0.60;;
12425;SDS011;6277;49.824;9.562;2022-10-16T05:28:24;0.40;;;0.40;;
12425;SDS011;6277;49.824;9.562;2022-10-16T05:30:51;1.38;;;0.50;;
12425;SDS011;6277;49.824;9.562;2022-10-16T05:33:16;1.58;;;0.45;;
12425;SDS011;6277;49.824;9.562;2022-10-16T05:35:42;0.75;;;0.43;;
12425;SDS011;6277;49.824;9.562;2022-10-16T05:38:08;1.15;;;0.60;;
12425;SDS011;6277;49.824;9.562;2022-10-16T05:40:34;1.17;;;0.60;;
12425;SDS011;6277;49.824;9.562;2022-10-16T05:43:00;1.35;;;0.55;;
12425;SDS011;6277;49.824;9.562;2022-10-16T05:45:25;2.05;;;0.60;;
12425;SDS011;6277;49.824;9.562;2022-10-16T05:47:51;1.50;;;0.60;;
12425;SDS011;6277;49.824;9.562;2022-10-16T05:50:17;0.70;;;0.50;;
12425;SDS011;6277;49.824;9.562;2022-10-16T05:52:42;1.73;;;0.63;;
12425;SDS011;6277;49.824;9.562;2022-10-16T05:55:08;0.82;;;0.65;;
12425;SDS011;6277;49.824;9.562;2022-10-16T05:57:33;0.57;;;0.50;;
12425;SDS011;6277;49.824;9.562;2022-10-16T05:59:59;0.82;;;0.40;;
12425;SDS011;6277;49.824;9.562;2022-10-16T06:02:24;0.90;;;0.47;;
12425;SDS011;6277;49.824;9.562;2022-10-16T06:04:53;1.45;;;0.60;;
12425;SDS011;6277;49.824;9.562;2022-10-16T06:07:18;0.50;;;0.50;;
12425;SDS011;6277;49.824;9.562;2022-10-16T06:09:47;0.65;;;0.40;;
12425;SDS011;6277;49.824;9.562;2022-10-16T06:12:16;1.52;;;0.60;;
12425;SDS011;6277;49.824;9.562;2022-10-16T06:14:42;0.60;;;0.40;;
12425;SDS011;6277;49.824;9.562;2022-10-16T06:17:09;0.65;;;0.52;;
12425;SDS011;6277;49.824;9.562;2022-10-16T06:19:34;1.33;;;0.57;;
12425;SDS011;6277;49.824;9.562;2022-10-16T06:22:00;0.60;;;0.55;;
12425;SDS011;6277;49.824;9.562;2022-10-16T06:24:27;0.52;;;0.40;;
12425;SDS011;6277;49.824;9.562;2022-10-16T06:26:53;0.50;;;0.50;;
12425;SDS011;6277;49.824;9.562;2022-10-16T06:29:18;1.52;;;0.60;;
12425;SDS011;6277;49.824;9.562;2022-10-16T06:31:44;0.80;;;0.70;;
12425;SDS011;6277;49.824;9.562;2022-10-16T06:34:10;0.57;;;0.50;;
12425;SDS011;6277;49.824;9.562;2022-10-16T06:36:36;0.63;;;0.57;;
12425;SDS011;6277;49.824;9.562;2022-10-16T06:39:03;0.70;;;0.43;;
12425;SDS011;6277;49.824;9.562;2022-10-16T06:41:30;1.48;;;0.63;;
12425;SDS011;6277;49.824;9.562;2022-10-16T06:43:56;2.25;;;0.60;;
12425;SDS011;6277;49.824;9.562;2022-10-16T06:46:22;0.70;;;0.50;;
12425;SDS011;6277;49.824;9.562;2022-10-16T06:48:49;1.23;;;0.60;;
12425;SDS011;6277;49.824;9.562;2022-10-16T06:51:18;1.77;;;0.50;;
12425;SDS011;6277;49.824;9.562;2022-10-16T06:53:49;0.98;;;0.60;;
12425;SDS011;6277;49.824;9.562;2022-10-16T06:56:18;1.00;;;0.50;;
12425;SDS011;6277;49.824;9.562;2022-10-16T06:58:51;1.27;;;0.57;;
12425;SDS011;6277;49.824;9.562;2022-10-16T07:01:19;0.57;;;0.57;;
12425;SDS011;6277;49.824;9.562;2022-10-16T07:03:46;0.50;;;0.50;;
12425;SDS011;6277;49.824;9.562;2022-10-16T07:06:13;1.15;;;0.40;;
12425;SDS011;6277;49.824;9.562;2022-10-16T07:08:43;0.50;;;0.50;;
12425;SDS011;6277;49.824;9.562;2022-10-16T07:11:11;0.50;;;0.50;;
12425;SDS011;6277;49.824;9.562;2022-10-16T07:13:39;0.60;;;0.50;;
12425;SDS011;6277;49.824;9.562;2022-10-16T07:16:06;1.00;;;0.50;;
12425;SDS011;6277;49.824;9.562;2022-10-16T07:18:33;1.55;;;0.93;;
12425;SDS011;6277;49.824;9.562;2022-10-16T07:21:03;1.85;;;1.42;;
12425;SDS011;6277;49.824;9.562;2022-10-16T07:23:29;1.73;;;1.20;;
12425;SDS011;6277;49.824;9.562;2022-10-16T07:25:55;2.70;;;1.00;;
12425;SDS011;6277;49.824;9.562;2022-10-16T07:28:21;0.70;;;0.68;;
12425;SDS011;6277;49.824;9.562;2022-10-16T07:30:47;1.75;;;0.65;;
12425;SDS011;6277;49.824;9.562;2022-10-16T07:33:12;1.30;;;0.60;;
12425;SDS011;6277;49.824;9.562;2022-10-16T07:35:38;0.70;;;0.50;;
12425;SDS011;6277;49.824;9.562;2022-10-16T07:38:13;1.10;;;0.70;;
12425;SDS011;6277;49.824;9.562;2022-10-16T07:40:38;0.68;;;0.50;;
12425;SDS011;6277;49.824;9.562;2022-10-16T07:43:04;0.45;;;0.40;;
12425;SDS011;6277;49.824;9.562;2022-10-16T07:45:30;0.70;;;0.70;;
12425;SDS011;6277;49.824;9.562;2022-10-16T07:47:55;0.60;;;0.50;;
12425;SDS011;6277;49.824;9.562;2022-10-16T07:50:21;2.53;;;0.85;;
12425;SDS011;6277;49.824;9.562;2022-10-16T07:52:46;3.03;;;0.52;;
12425;SDS011;6277;49.824;9.562;2022-10-16T07:55:12;0.77;;;0.50;;
12425;SDS011;6277;49.824;9.562;2022-10-16T07:57:38;0.52;;;0.50;;
12425;SDS011;6277;49.824;9.562;2022-10-16T08:00:03;1.33;;;0.70;;
12425;SDS011;6277;49.824;9.562;2022-10-16T08:02:30;2.35;;;0.80;;
12425;SDS011;6277;49.824;9.562;2022-10-16T08:04:57;0.70;;;0.60;;
12425;SDS011;6277;49.824;9.562;2022-10-16T08:07:22;0.63;;;0.50;;
12425;SDS011;6277;49.824;9.562;2022-10-16T08:09:51;1.15;;;0.60;;
12425;SDS011;6277;49.824;9.562;2022-10-16T08:12:17;0.77;;;0.63;;
12425;SDS011;6277;49.824;9.562;2022-10-16T08:14:43;1.73;;;0.52;;
12425;SDS011;6277;49.824;9.562;2022-10-16T08:17:08;0.95;;;0.60;;
12425;SDS011;6277;49.824;9.562;2022-10-16T08:19:34;0.90;;;0.60;;
12425;SDS011;6277;49.824;9.562;2022-10-16T08:21:59;0.47;;;0.35;;
12425;SDS011;6277;49.824;9.562;2022-10-16T08:24:26;0.90;;;0.60;;
12425;SDS011;6277;49.824;9.562;2022-10-16T08:26:53;0.50;;;0.50;;
12425;SDS011;6277;49.824;9.562;2022-10-16T08:29:19;0.85;;;0.50;;
12425;SDS011;6277;49.824;9.562;2022-10-16T08:31:45;0.70;;;0.40;;
12425;SDS011;6277;49.824;9.562;2022-10-16T08:34:10;0.75;;;0.47;;
12425;SDS011;6277;49.824;9.562;2022-10-16T08:36:36;0.40;;;0.40;;
12425;SDS011;6277;49.824;9.562;2022-10-16T08:39:01;2.85;;;0.50;;
12425;SDS011;6277;49.824;9.562;2022-10-16T08:50:23;1.63;;;0.80;;
12425;SDS011;6277;49.824;9.562;2022-10-16T08:52:51;1.45;;;0.43;;
12425;SDS011;6277;49.824;9.562;2022-10-16T09:00:53;1.60;;;0.50;;
12425;SDS011;6277;49.824;9.562;2022-10-16T09:08:50;0.68;;;0.50;;
12425;SDS011;6277;49.824;9.562;2022-10-16T09:22:38;2.90;;;0.65;;
12425;SDS011;6277;49.824;9.562;2022-10-16T09:25:17;0.60;;;0.60;;
12425;SDS011;6277;49.824;9.562;2022-10-16T09:27:45;0.80;;;0.50;;
12425;SDS011;6277;49.824;9.562;2022-10-16T09:30:14;1.02;;;0.60;;
12425;SDS011;6277;49.824;9.562;2022-10-16T09:32:43;0.50;;;0.50;;
12425;SDS011;6277;49.824;9.562;2022-10-16T09:35:14;1.45;;;0.60;;
12425;SDS011;6277;49.824;9.562;2022-10-16T09:37:42;0.85;;;0.57;;
12425;SDS011;6277;49.824;9.562;2022-10-16T09:42:57;1.88;;;0.50;;
12425;SDS011;6277;49.824;9.562;2022-10-16T09:45:53;1.67;;;0.60;;
12425;SDS011;6277;49.824;9.562;2022-10-16T09:48:37;2.10;;;0.57;;
12425;SDS011;6277;49.824;9.562;2022-10-16T09:51:19;1.80;;;0.85;;
12425;SDS011;6277;49.824;9.562;2022-10-16T09:53:55;1.45;;;0.85;;
12425;SDS011;6277;49.824;9.562;2022-10-16T09:56:29;1.85;;;1.02;;
12425;SDS011;6277;49.824;9.562;2022-10-16T09:58:59;2.60;;;0.98;;
12425;SDS011;6277;49.824;9.562;2022-10-16T10:01:28;1.70;;;0.85;;
12425;SDS011;6277;49.824;9.562;2022-10-16T10:04:05;1.42;;;0.80;;
12425;SDS011;6277;49.824;9.562;2022-10-16T10:06:33;1.00;;;0.70;;
12425;SDS011;6277;49.824;9.562;2022-10-16T10:11:58;2.63;;;0.68;;
12425;SDS011;6277;49.824;9.562;2022-10-16T10:17:17;2.40;;;1.52;;
12425;SDS011;6277;49.824;9.562;2022-10-16T10:19:54;2.10;;;0.98;;
12425;SDS011;6277;49.824;9.562;2022-10-16T10:22:28;0.95;;;0.60;;
12425;SDS011;6277;49.824;9.562;2022-10-16T10:27:58;0.80;;;0.80;;
12425;SDS011;6277;49.824;9.562;2022-10-16T10:36:12;0.90;;;0.68;;
12425;SDS011;6277;49.824;9.562;2022-10-16T10:41:38;0.77;;;0.70;;
12425;SDS011;6277;49.824;9.562;2022-10-16T11:11:23;1.25;;;0.50;;
12425;SDS011;6277;49.824;9.562;2022-10-16T11:16:47;0.98;;;0.57;;
12425;SDS011;6277;49.824;9.562;2022-10-16T11:22:25;0.85;;;0.52;;
12425;SDS011;6277;49.824;9.562;2022-10-16T11:25:02;0.73;;;0.60;;
12425;SDS011;6277;49.824;9.562;2022-10-16T11:27:55;0.80;;;0.70;;
12425;SDS011;6277;49.824;9.562;2022-10-16T11:30:44;1.13;;;0.55;;
12425;SDS011;6277;49.824;9.562;2022-10-16T11:36:03;1.33;;;0.63;;
12425;SDS011;6277;49.824;9.562;2022-10-16T11:38:54;0.65;;;0.57;;
12425;SDS011;6277;49.824;9.562;2022-10-16T11:41:28;0.70;;;0.52;;
12425;SDS011;6277;49.824;9.562;2022-10-16T11:50:09;1.02;;;0.50;;
12425;SDS011;6277;49.824;9.562;2022-10-16T11:52:52;3.03;;;0.70;;
12425;SDS011;6277;49.824;9.562;2022-10-16T11:55:38;0.50;;;0.50;;
12425;SDS011;6277;49.824;9.562;2022-10-16T12:00:55;0.68;;;0.50;;
12425;SDS011;6277;49.824;9.562;2022-10-16T12:03:30;0.63;;;0.55;;
12425;SDS011;6277;49.824;9.562;2022-10-16T12:06:06;0.77;;;0.52;;
12425;SDS011;6277;49.824;9.562;2022-10-16T12:08:36;1.50;;;0.50;;
12425;SDS011;6277;49.824;9.562;2022-10-16T12:11:36;0.63;;;0.40;;
12425;SDS011;6277;49.824;9.562;2022-10-16T12:16:38;0.50;;;0.47;;
12425;SDS011;6277;49.824;9.562;2022-10-16T12:19:19;3.63;;;0.60;;
12425;SDS011;6277;49.824;9.562;2022-10-16T12:21:45;1.38;;;0.55;;
12425;SDS011;6277;49.824;9.562;2022-10-16T12:30:04;0.75;;;0.50;;
12425;SDS011;6277;49.824;9.562;2022-10-16T12:32:32;1.15;;;0.57;;
12425;SDS011;6277;49.824;9.562;2022-10-16T12:35:03;0.50;;;0.40;;
12425;SDS011;6277;49.824;9.562;2022-10-16T12:37:35;0.50;;;0.43;;
12425;SDS011;6277;49.824;9.562;2022-10-16T12:40:12;1.52;;;0.60;;
12425;SDS011;6277;49.824;9.562;2022-10-16T12:42:41;1.38;;;0.45;;
12425;SDS011;6277;49.824;9.562;2022-10-16T12:45:21;0.50;;;0.50;;
12425;SDS011;6277;49.824;9.562;2022-10-16T12:47:50;1.13;;;0.50;;
12425;SDS011;6277;49.824;9.562;2022-10-16T12:50:37;2.05;;;0.60;;
12425;SDS011;6277;49.824;9.562;2022-10-16T12:53:21;2.03;;;0.50;;
12425;SDS011;6277;49.824;9.562;2022-10-16T13:01:12;1.83;;;0.60;;
12425;SDS011;6277;49.824;9.562;2022-10-16T13:06:35;2.25;;;0.60;;
12425;SDS011;6277;49.824;9.562;2022-10-16T13:14:26;0.70;;;0.60;;
12425;SDS011;6277;49.824;9.562;2022-10-16T13:22:14;0.52;;;0.43;;
12425;SDS011;6277;49.824;9.562;2022-10-16T13:25:13;0.93;;;0.60;;
12425;SDS011;6277;49.824;9.562;2022-10-16T13:27:55;0.55;;;0.45;;
12425;SDS011;6277;49.824;9.562;2022-10-16T13:30:27;1.33;;;0.63;;
12425;SDS011;6277;49.824;9.562;2022-10-16T13:35:27;1.38;;;0.80;;
12425;SDS011;6277;49.824;9.562;2022-10-16T13:38:31;1.83;;;0.60;;
12425;SDS011;6277;49.824;9.562;2022-10-16T13:40:54;0.63;;;0.50;;
12425;SDS011;6277;49.824;9.562;2022-10-16T13:46:02;0.57;;;0.55;;
12425;SDS011;6277;49.824;9.562;2022-10-16T13:48:30;0.80;;;0.60;;
12425;SDS011;6277;49.824;9.562;2022-10-16T13:53:36;1.08;;;0.45;;
12425;SDS011;6277;49.824;9.562;2022-10-16T13:56:15;1.05;;;0.70;;
12425;SDS011;6277;49.824;9.562;2022-10-16T13:58:44;1.65;;;0.60;;
12425;SDS011;6277;49.824;9.562;2022-10-16T14:01:15;0.52;;;0.52;;
12425;SDS011;6277;49.824;9.562;2022-10-16T14:03:44;0.80;;;0.57;;
12425;SDS011;6277;49.824;9.562;2022-10-16T14:06:12;0.50;;;0.50;;
12425;SDS011;6277;49.824;9.562;2022-10-16T14:09:01;0.77;;;0.50;;
12425;SDS011;6277;49.824;9.562;2022-10-16T14:11:45;0.50;;;0.50;;
12425;SDS011;6277;49.824;9.562;2022-10-16T14:14:14;1.58;;;0.60;;
12425;SDS011;6277;49.824;9.562;2022-10-16T14:16:40;0.70;;;0.50;;
12425;SDS011;6277;49.824;9.562;2022-10-16T14:19:13;1.13;;;0.60;;
12425;SDS011;6277;49.824;9.562;2022-10-16T14:21:45;0.70;;;0.60;;
12425;SDS011;6277;49.824;9.562;2022-10-16T14:24:11;1.52;;;0.68;;
12425;SDS011;6277;49.824;9.562;2022-10-16T14:26:44;0.60;;;0.60;;
12425;SDS011;6277;49.824;9.562;2022-10-16T14:29:14;1.58;;;0.82;;
12425;SDS011;6277;49.824;9.562;2022-10-16T14:31:42;1.52;;;0.57;;
12425;SDS011;6277;49.824;9.562;2022-10-16T14:34:30;0.52;;;0.50;;
12425;SDS011;6277;49.824;9.562;2022-10-16T14:37:05;1.02;;;0.50;;
12425;SDS011;6277;49.824;9.562;2022-10-16T14:39:40;0.68;;;0.47;;
12425;SDS011;6277;49.824;9.562;2022-10-16T14:42:19;0.95;;;0.30;;
12425;SDS011;6277;49.824;9.562;2022-10-16T14:44:48;1.40;;;0.60;;
12425;SDS011;6277;49.824;9.562;2022-10-16T14:47:18;0.65;;;0.50;;
12425;SDS011;6277;49.824;9.562;2022-10-16T14:49:50;0.55;;;0.40;;
12425;SDS011;6277;49.824;9.562;2022-10-16T14:52:16;1.33;;;0.70;;
12425;SDS011;6277;49.824;9.562;2022-10-16T14:54:42;0.70;;;0.60;;
12425;SDS011;6277;49.824;9.562;2022-10-16T14:57:18;0.88;;;0.60;;
12425;SDS011;6277;49.824;9.562;2022-10-16T14:59:45;0.90;;;0.50;;
12425;SDS011;6277;49.824;9.562;2022-10-16T15:04:46;1.20;;;0.60;;
12425;SDS011;6277;49.824;9.562;2022-10-16T15:07:12;1.00;;;0.60;;
12425;SDS011;6277;49.824;9.562;2022-10-16T15:09:37;1.77;;;0.88;;
12425;SDS011;6277;49.824;9.562;2022-10-16T15:12:03;2.45;;;0.52;;
12425;SDS011;6277;49.824;9.562;2022-10-16T15:14:29;1.27;;;0.70;;
12425;SDS011;6277;49.824;9.562;2022-10-16T15:16:55;0.80;;;0.60;;
12425;SDS011;6277;49.824;9.562;2022-10-16T15:19:21;0.63;;;0.50;;
12425;SDS011;6277;49.824;9.562;2022-10-16T15:21:46;0.70;;;0.60;;
12425;SDS011;6277;49.824;9.562;2022-10-16T15:24:13;0.43;;;0.43;;
12425;SDS011;6277;49.824;9.562;2022-10-16T15:26:38;0.73;;;0.70;;
12425;SDS011;6277;49.824;9.562;2022-10-16T15:29:04;0.70;;;0.65;;
12425;SDS011;6277;49.824;9.562;2022-10-16T15:31:30;1.45;;;0.85;;
12425;SDS011;6277;49.824;9.562;2022-10-16T15:33:56;0.85;;;0.77;;
12425;SDS011;6277;49.824;9.562;2022-10-16T15:36:32;1.73;;;0.60;;
12425;SDS011;6277;49.824;9.562;2022-10-16T15:39:02;0.85;;;0.60;;
12425;SDS011;6277;49.824;9.562;2022-10-16T15:41:29;1.67;;;1.23;;
12425;SDS011;6277;49.824;9.562;2022-10-16T15:43:54;1.58;;;1.40;;
12425;SDS011;6277;49.824;9.562;2022-10-16T15:46:20;1.60;;;1.50;;
12425;SDS011;6277;49.824;9.562;2022-10-16T15:48:48;1.50;;;1.40;;
12425;SDS011;6277;49.824;9.562;2022-10-16T15:51:15;2.47;;;0.98;;
12425;SDS011;6277;49.824;9.562;2022-10-16T15:53:41;1.17;;;1.08;;
12425;SDS011;6277;49.824;9.562;2022-10-16T15:56:08;3.53;;;1.90;;
12425;SDS011;6277;49.824;9.562;2022-10-16T15:58:35;2.28;;;1.98;;
12425;SDS011;6277;49.824;9.562;2022-10-16T16:01:01;1.98;;;1.75;;
12425;SDS011;6277;49.824;9.562;2022-10-16T16:03:28;1.83;;;1.65;;
12425;SDS011;6277;49.824;9.562;2022-10-16T16:05:54;1.73;;;1.48;;
12425;SDS011;6277;49.824;9.562;2022-10-16T16:08:20;2.28;;;1.75;;
12425;SDS011;6277;49.824;9.562;2022-10-16T16:10:59;1.83;;;1.42;;
12425;SDS011;6277;49.824;9.562;2022-10-16T16:13:26;1.65;;;1.35;;
12425;SDS011;6277;49.824;9.562;2022-10-16T16:15:52;1.33;;;1.10;;
12425;SDS011;6277;49.824;9.562;2022-10-16T16:18:18;1.75;;;1.40;;
12425;SDS011;6277;49.824;9.562;2022-10-16T16:20:43;2.75;;;0.90;;
12425;SDS011;6277;49.824;9.562;2022-10-16T16:23:09;2.25;;;1.00;;
12425;SDS011;6277;49.824;9.562;2022-10-16T16:25:34;1.70;;;0.95;;
12425;SDS011;6277;49.824;9.562;2022-10-16T16:28:00;1.25;;;1.00;;
12425;SDS011;6277;49.824;9.562;2022-10-16T16:30:25;1.48;;;0.90;;
12425;SDS011;6277;49.824;9.562;2022-10-16T16:32:51;0.98;;;0.80;;
12425;SDS011;6277;49.824;9.562;2022-10-16T16:35:16;1.73;;;1.00;;
12425;SDS011;6277;49.824;9.562;2022-10-16T16:37:42;1.00;;;0.90;;
12425;SDS011;6277;49.824;9.562;2022-10-16T16:40:08;1.67;;;0.80;;
12425;SDS011;6277;49.824;9.562;2022-10-16T16:42:33;1.33;;;0.85;;
12425;SDS011;6277;49.824;9.562;2022-10-16T16:44:59;0.70;;;0.70;;
12425;SDS011;6277;49.824;9.562;2022-10-16T16:47:24;0.93;;;0.70;;
12425;SDS011;6277;49.824;9.562;2022-10-16T16:49:50;1.83;;;0.90;;
12425;SDS011;6277;49.824;9.562;2022-10-16T16:52:16;0.90;;;0.82;;
12425;SDS011;6277;49.824;9.562;2022-10-16T16:54:42;1.42;;;0.80;;
12425;SDS011;6277;49.824;9.562;2022-10-16T16:57:09;3.47;;;1.00;;
12425;SDS011;6277;49.824;9.562;2022-10-16T16:59:35;1.20;;;1.02;;
12425;SDS011;6277;49.824;9.562;2022-10-16T17:02:01;1.33;;;1.00;;
12425;SDS011;6277;49.824;9.562;2022-10-16T17:04:27;1.65;;;1.08;;
12425;SDS011;6277;49.824;9.562;2022-10-16T17:06:53;2.15;;;0.98;;
12425;SDS011;6277;49.824;9.562;2022-10-16T17:09:20;1.42;;;0.90;;
12425;SDS011;6277;49.824;9.562;2022-10-16T17:11:46;1.13;;;0.85;;
12425;SDS011;6277;49.824;9.562;2022-10-16T17:14:13;1.05;;;0.95;;
12425;SDS011;6277;49.824;9.562;2022-10-16T17:16:39;2.22;;;1.02;;
12425;SDS011;6277;49.824;9.562;2022-10-16T17:19:10;2.20;;;1.15;;
12425;SDS011;6277;49.824;9.562;2022-10-16T17:21:38;2.00;;;1.15;;
12425;SDS011;6277;49.824;9.562;2022-10-16T17:24:04;1.63;;;1.48;;
12425;SDS011;6277;49.824;9.562;2022-10-16T17:26:30;1.30;;;1.10;;
12425;SDS011;6277;49.824;9.562;2022-10-16T17:28:56;1.40;;;1.10;;
12425;SDS011;6277;49.824;9.562;2022-10-16T17:31:25;1.30;;;1.15;;
12425;SDS011;6277;49.824;9.562;2022-10-16T17:33:52;1.33;;;1.10;;
12425;SDS011;6277;49.824;9.562;2022-10-16T17:36:19;2.60;;;1.20;;
12425;SDS011;6277;49.824;9.562;2022-10-16T17:38:45;2.22;;;1.02;;